sensor_id;sensor_type;location;lat;lon;timestamp;temperature;humidity
21565;DHT22;10943;48.738;9.320;2022-12-07T00:01:46;9.50;99.90
21565;DHT22;10943;48.738;9.320;2022-12-07T00:04:16;9.30;99.90
21565;DHT22;10943;48.738;9.320;2022-12-07T00:06:50;9.50;99.90
21565;DHT22;10943;48.738;9.320;2022-12-07T00:09:21;9.40;99.90
21565;DHT22;10943;48.738;9.320;2022-12-07T00:11:50;9.50;99.90
21565;DHT22;10943;48.738;9.320;2022-12-07T00:14:20;9.60;99.90
21565;DHT22;10943;48.738;9.320;2022-12-07T00:16:50;9.50;99.90
21565;DHT22;10943;48.738;9.320;2022-12-07T00:19:18;9.60;99.90
21565;DHT22;10943;48.738;9.320;2022-12-07T00:21:46;9.60;99.90
21565;DHT22;10943;48.738;9.320;2022-12-07T00:24:13;9.50;99.90
21565;DHT22;10943;48.738;9.320;2022-12-07T00:26:41;9.60;99.90
21565;DHT22;10943;48.738;9.320;2022-12-07T00:29:18;9.40;99.90
21565;DHT22;10943;48.738;9.320;2022-12-07T00:31:47;9.40;99.90
21565;DHT22;10943;48.738;9.320;2022-12-07T00:34:18;9.50;99.90
21565;DHT22;10943;48.738;9.320;2022-12-07T00:36:48;9.40;99.90
21565;DHT22;10943;48.738;9.320;2022-12-07T00:39:16;9.40;99.90
21565;DHT22;10943;48.738;9.320;2022-12-07T00:41:44;9.40;99.90
21565;DHT22;10943;48.738;9.320;2022-12-07T00:44:12;9.40;99.90
21565;DHT22;10943;48.738;9.320;2022-12-07T00:46:39;9.30;99.90
21565;DHT22;10943;48.738;9.320;2022-12-07T00:49:07;9.40;99.90
21565;DHT22;10943;48.738;9.320;2022-12-07T00:51:34;9.50;99.90
21565;DHT22;10943;48.738;9.320;2022-12-07T00:54:01;9.60;99.90
21565;DHT22;10943;48.738;9.320;2022-12-07T00:56:29;9.40;99.90
21565;DHT22;10943;48.738;9.320;2022-12-07T00:58:59;9.50;99.90
21565;DHT22;10943;48.738;9.320;2022-12-07T01:01:35;9.50;99.90
21565;DHT22;10943;48.738;9.320;2022-12-07T01:04:03;9.60;99.90
21565;DHT22;10943;48.738;9.320;2022-12-07T01:06:32;9.40;99.90
21565;DHT22;10943;48.738;9.320;2022-12-07T01:09:03;9.50;99.90
21565;DHT22;10943;48.738;9.320;2022-12-07T01:11:31;9.50;99.90
21565;DHT22;10943;48.738;9.320;2022-12-07T01:14:00;9.50;99.90
21565;DHT22;10943;48.738;9.320;2022-12-07T01:16:31;9.60;99.90
21565;DHT22;10943;48.738;9.320;2022-12-07T01:19:00;9.50;99.90
21565;DHT22;10943;48.738;9.320;2022-12-07T01:21:33;9.40;99.90
21565;DHT22;10943;48.738;9.320;2022-12-07T01:24:05;9.40;99.90
21565;DHT22;10943;48.738;9.320;2022-12-07T01:26:37;9.40;99.90
21565;DHT22;10943;48.738;9.320;2022-12-07T01:29:04;9.40;99.90
21565;DHT22;10943;48.738;9.320;2022-12-07T01:31:32;9.40;99.90
21565;DHT22;10943;48.738;9.320;2022-12-07T01:34:00;9.30;99.90
21565;DHT22;10943;48.738;9.320;2022-12-07T01:36:34;9.40;99.90
21565;DHT22;10943;48.738;9.320;2022-12-07T01:39:05;9.40;99.90
21565;DHT22;10943;48.738;9.320;2022-12-07T01:41:37;9.40;99.90
21565;DHT22;10943;48.738;9.320;2022-12-07T01:44:20;9.30;99.90
21565;DHT22;10943;48.738;9.320;2022-12-07T01:47:02;9.30;99.90
21565;DHT22;10943;48.738;9.320;2022-12-07T01:49:35;9.30;99.90
21565;DHT22;10943;48.738;9.320;2022-12-07T01:54:57;9.30;99.90
21565;DHT22;10943;48.738;9.320;2022-12-07T01:57:32;9.20;99.90
21565;DHT22;10943;48.738;9.320;2022-12-07T02:00:07;9.10;99.90
21565;DHT22;10943;48.738;9.320;2022-12-07T02:03:26;9.10;99.90
21565;DHT22;10943;48.738;9.320;2022-12-07T02:06:00;9.00;99.90
21565;DHT22;10943;48.738;9.320;2022-12-07T02:08:27;9.10;99.90
21565;DHT22;10943;48.738;9.320;2022-12-07T02:11:02;9.10;99.90
21565;DHT22;10943;48.738;9.320;2022-12-07T02:13:35;9.00;99.90
21565;DHT22;10943;48.738;9.320;2022-12-07T02:18:57;8.80;99.90
21565;DHT22;10943;48.738;9.320;2022-12-07T02:22:22;8.80;99.90
21565;DHT22;10943;48.738;9.320;2022-12-07T02:27:52;8.70;99.90
21565;DHT22;10943;48.738;9.320;2022-12-07T02:30:33;8.70;99.90
21565;DHT22;10943;48.738;9.320;2022-12-07T02:33:29;8.70;99.90
21565;DHT22;10943;48.738;9.320;2022-12-07T02:36:24;8.70;99.90
21565;DHT22;10943;48.738;9.320;2022-12-07T02:39:07;8.80;99.90
21565;DHT22;10943;48.738;9.320;2022-12-07T02:41:47;8.80;99.90
21565;DHT22;10943;48.738;9.320;2022-12-07T02:44:25;8.80;99.90
21565;DHT22;10943;48.738;9.320;2022-12-07T02:47:03;8.60;99.90
21565;DHT22;10943;48.738;9.320;2022-12-07T02:49:36;8.50;99.90
21565;DHT22;10943;48.738;9.320;2022-12-07T02:52:05;8.60;99.90
21565;DHT22;10943;48.738;9.320;2022-12-07T02:54:33;8.60;99.90
21565;DHT22;10943;48.738;9.320;2022-12-07T02:57:21;8.60;99.90
21565;DHT22;10943;48.738;9.320;2022-12-07T03:00:21;8.50;99.90
21565;DHT22;10943;48.738;9.320;2022-12-07T03:08:24;8.60;99.90
21565;DHT22;10943;48.738;9.320;2022-12-07T03:11:07;8.90;99.90
21565;DHT22;10943;48.738;9.320;2022-12-07T03:14:05;9.00;99.90
21565;DHT22;10943;48.738;9.320;2022-12-07T03:16:57;8.90;99.90
21565;DHT22;10943;48.738;9.320;2022-12-07T03:19:33;8.90;99.90
21565;DHT22;10943;48.738;9.320;2022-12-07T03:22:05;8.90;99.90
21565;DHT22;10943;48.738;9.320;2022-12-07T03:24:46;8.80;99.90
21565;DHT22;10943;48.738;9.320;2022-12-07T03:27:22;8.70;99.90
21565;DHT22;10943;48.738;9.320;2022-12-07T03:29:59;8.80;99.90
21565;DHT22;10943;48.738;9.320;2022-12-07T03:32:37;8.80;99.90
21565;DHT22;10943;48.738;9.320;2022-12-07T03:35:20;8.70;99.90
21565;DHT22;10943;48.738;9.320;2022-12-07T03:38:07;8.60;99.90
21565;DHT22;10943;48.738;9.320;2022-12-07T03:40:48;8.60;99.90
21565;DHT22;10943;48.738;9.320;2022-12-07T03:43:29;8.50;99.90
21565;DHT22;10943;48.738;9.320;2022-12-07T03:49:00;8.50;99.90
21565;DHT22;10943;48.738;9.320;2022-12-07T03:52:12;8.50;99.90
21565;DHT22;10943;48.738;9.320;2022-12-07T03:55:10;8.50;99.90
21565;DHT22;10943;48.738;9.320;2022-12-07T03:57:39;8.50;99.90
21565;DHT22;10943;48.738;9.320;2022-12-07T04:00:11;8.40;99.90
21565;DHT22;10943;48.738;9.320;2022-12-07T04:03:09;8.20;99.90
21565;DHT22;10943;48.738;9.320;2022-12-07T04:05:39;8.40;99.90
21565;DHT22;10943;48.738;9.320;2022-12-07T04:08:07;8.60;99.90
21565;DHT22;10943;48.738;9.320;2022-12-07T04:10:35;8.60;99.90
21565;DHT22;10943;48.738;9.320;2022-12-07T04:13:02;8.20;99.90
21565;DHT22;10943;48.738;9.320;2022-12-07T04:15:32;8.20;99.90
21565;DHT22;10943;48.738;9.320;2022-12-07T04:17:59;8.10;99.90
21565;DHT22;10943;48.738;9.320;2022-12-07T04:20:29;8.20;99.90
21565;DHT22;10943;48.738;9.320;2022-12-07T04:22:57;8.10;99.90
21565;DHT22;10943;48.738;9.320;2022-12-07T04:25:24;8.00;99.90
21565;DHT22;10943;48.738;9.320;2022-12-07T04:27:51;8.10;99.90
21565;DHT22;10943;48.738;9.320;2022-12-07T04:30:19;8.10;99.90
21565;DHT22;10943;48.738;9.320;2022-12-07T04:32:46;7.80;99.90
21565;DHT22;10943;48.738;9.320;2022-12-07T04:35:14;7.90;99.90
21565;DHT22;10943;48.738;9.320;2022-12-07T04:37:41;8.00;99.90
21565;DHT22;10943;48.738;9.320;2022-12-07T04:40:09;8.10;99.90
21565;DHT22;10943;48.738;9.320;2022-12-07T04:42:38;8.00;99.90
21565;DHT22;10943;48.738;9.320;2022-12-07T04:45:06;7.70;99.90
21565;DHT22;10943;48.738;9.320;2022-12-07T04:47:34;7.60;99.90
21565;DHT22;10943;48.738;9.320;2022-12-07T04:50:02;8.00;99.90
21565;DHT22;10943;48.738;9.320;2022-12-07T04:52:30;7.70;99.90
21565;DHT22;10943;48.738;9.320;2022-12-07T04:54:57;7.70;99.90
21565;DHT22;10943;48.738;9.320;2022-12-07T04:57:25;7.70;99.90
21565;DHT22;10943;48.738;9.320;2022-12-07T04:59:55;7.50;99.90
21565;DHT22;10943;48.738;9.320;2022-12-07T05:02:22;7.50;99.90
21565;DHT22;10943;48.738;9.320;2022-12-07T05:04:50;7.40;99.90
21565;DHT22;10943;48.738;9.320;2022-12-07T05:07:17;7.30;99.90
21565;DHT22;10943;48.738;9.320;2022-12-07T05:09:47;7.40;99.90
21565;DHT22;10943;48.738;9.320;2022-12-07T05:12:14;7.60;99.90
21565;DHT22;10943;48.738;9.320;2022-12-07T05:14:41;7.60;99.90
21565;DHT22;10943;48.738;9.320;2022-12-07T05:17:08;7.70;99.90
21565;DHT22;10943;48.738;9.320;2022-12-07T05:19:36;7.70;99.90
21565;DHT22;10943;48.738;9.320;2022-12-07T05:22:03;7.50;99.90
21565;DHT22;10943;48.738;9.320;2022-12-07T05:24:33;7.60;99.90
21565;DHT22;10943;48.738;9.320;2022-12-07T05:27:00;7.50;99.90
21565;DHT22;10943;48.738;9.320;2022-12-07T05:29:28;7.60;99.90
21565;DHT22;10943;48.738;9.320;2022-12-07T05:31:55;7.70;99.90
21565;DHT22;10943;48.738;9.320;2022-12-07T05:34:23;7.70;99.90
21565;DHT22;10943;48.738;9.320;2022-12-07T05:36:50;7.50;99.90
21565;DHT22;10943;48.738;9.320;2022-12-07T05:39:17;7.40;99.90
21565;DHT22;10943;48.738;9.320;2022-12-07T05:41:44;7.30;99.90
21565;DHT22;10943;48.738;9.320;2022-12-07T05:44:30;7.20;99.90
21565;DHT22;10943;48.738;9.320;2022-12-07T05:46:58;7.30;99.90
21565;DHT22;10943;48.738;9.320;2022-12-07T05:49:25;7.00;99.90
21565;DHT22;10943;48.738;9.320;2022-12-07T05:51:52;6.80;99.90
21565;DHT22;10943;48.738;9.320;2022-12-07T05:54:20;6.90;99.90
21565;DHT22;10943;48.738;9.320;2022-12-07T05:56:47;7.00;99.90
21565;DHT22;10943;48.738;9.320;2022-12-07T05:59:14;6.90;99.90
21565;DHT22;10943;48.738;9.320;2022-12-07T06:04:29;7.00;99.90
21565;DHT22;10943;48.738;9.320;2022-12-07T06:07:00;6.90;99.90
21565;DHT22;10943;48.738;9.320;2022-12-07T06:09:28;6.70;99.90
21565;DHT22;10943;48.738;9.320;2022-12-07T06:11:57;6.70;99.90
21565;DHT22;10943;48.738;9.320;2022-12-07T06:14:43;6.70;99.90
21565;DHT22;10943;48.738;9.320;2022-12-07T06:17:15;6.80;99.90
21565;DHT22;10943;48.738;9.320;2022-12-07T06:19:43;6.60;99.90
21565;DHT22;10943;48.738;9.320;2022-12-07T06:22:11;6.70;99.90
21565;DHT22;10943;48.738;9.320;2022-12-07T06:24:39;6.80;99.90
21565;DHT22;10943;48.738;9.320;2022-12-07T06:27:06;7.00;99.90
21565;DHT22;10943;48.738;9.320;2022-12-07T06:29:34;6.80;99.90
21565;DHT22;10943;48.738;9.320;2022-12-07T06:32:02;7.00;99.90
21565;DHT22;10943;48.738;9.320;2022-12-07T06:34:30;7.10;99.90
21565;DHT22;10943;48.738;9.320;2022-12-07T06:37:00;7.40;99.90
21565;DHT22;10943;48.738;9.320;2022-12-07T06:39:28;7.70;99.90
21565;DHT22;10943;48.738;9.320;2022-12-07T06:41:56;7.50;99.90
21565;DHT22;10943;48.738;9.320;2022-12-07T06:44:24;7.50;99.90
21565;DHT22;10943;48.738;9.320;2022-12-07T06:46:52;7.40;99.90
21565;DHT22;10943;48.738;9.320;2022-12-07T06:49:38;7.40;99.90
21565;DHT22;10943;48.738;9.320;2022-12-07T06:52:05;7.50;99.90
21565;DHT22;10943;48.738;9.320;2022-12-07T06:54:32;7.40;99.90
21565;DHT22;10943;48.738;9.320;2022-12-07T06:57:00;7.40;99.90
21565;DHT22;10943;48.738;9.320;2022-12-07T06:59:28;7.50;99.90
21565;DHT22;10943;48.738;9.320;2022-12-07T07:01:56;7.50;99.90
21565;DHT22;10943;48.738;9.320;2022-12-07T07:04:24;7.30;99.90
21565;DHT22;10943;48.738;9.320;2022-12-07T07:06:51;7.20;99.90
21565;DHT22;10943;48.738;9.320;2022-12-07T07:09:25;7.10;99.90
21565;DHT22;10943;48.738;9.320;2022-12-07T07:11:53;7.40;99.90
21565;DHT22;10943;48.738;9.320;2022-12-07T07:14:25;7.70;99.90
21565;DHT22;10943;48.738;9.320;2022-12-07T07:16:53;7.70;99.90
21565;DHT22;10943;48.738;9.320;2022-12-07T07:19:20;7.70;99.90
21565;DHT22;10943;48.738;9.320;2022-12-07T07:21:48;7.20;99.90
21565;DHT22;10943;48.738;9.320;2022-12-07T07:24:15;7.10;99.90
21565;DHT22;10943;48.738;9.320;2022-12-07T07:26:42;7.20;99.90
21565;DHT22;10943;48.738;9.320;2022-12-07T07:29:10;7.10;99.90
21565;DHT22;10943;48.738;9.320;2022-12-07T07:31:37;7.30;99.90
21565;DHT22;10943;48.738;9.320;2022-12-07T07:34:04;7.50;99.90
21565;DHT22;10943;48.738;9.320;2022-12-07T07:36:32;7.50;99.90
21565;DHT22;10943;48.738;9.320;2022-12-07T07:39:02;7.50;99.90
21565;DHT22;10943;48.738;9.320;2022-12-07T07:41:31;7.50;99.90
21565;DHT22;10943;48.738;9.320;2022-12-07T07:43:58;7.60;99.90
21565;DHT22;10943;48.738;9.320;2022-12-07T07:46:27;7.60;99.90
21565;DHT22;10943;48.738;9.320;2022-12-07T07:48:54;7.80;99.90
21565;DHT22;10943;48.738;9.320;2022-12-07T07:51:22;7.80;99.90
21565;DHT22;10943;48.738;9.320;2022-12-07T07:53:49;8.00;99.90
21565;DHT22;10943;48.738;9.320;2022-12-07T07:56:19;8.10;99.90
21565;DHT22;10943;48.738;9.320;2022-12-07T07:58:46;8.50;99.90
21565;DHT22;10943;48.738;9.320;2022-12-07T08:01:17;8.40;99.90
21565;DHT22;10943;48.738;9.320;2022-12-07T08:03:47;8.30;99.90
21565;DHT22;10943;48.738;9.320;2022-12-07T08:06:14;8.20;99.90
21565;DHT22;10943;48.738;9.320;2022-12-07T08:08:41;7.90;99.90
21565;DHT22;10943;48.738;9.320;2022-12-07T08:11:09;8.20;99.90
21565;DHT22;10943;48.738;9.320;2022-12-07T08:13:37;8.40;99.90
21565;DHT22;10943;48.738;9.320;2022-12-07T08:16:09;8.60;99.90
21565;DHT22;10943;48.738;9.320;2022-12-07T08:18:39;8.70;99.90
21565;DHT22;10943;48.738;9.320;2022-12-07T08:21:11;8.60;99.90
21565;DHT22;10943;48.738;9.320;2022-12-07T08:23:41;9.00;99.90
21565;DHT22;10943;48.738;9.320;2022-12-07T08:26:14;9.20;99.90
21565;DHT22;10943;48.738;9.320;2022-12-07T08:28:43;9.30;99.90
21565;DHT22;10943;48.738;9.320;2022-12-07T08:31:15;9.30;99.90
21565;DHT22;10943;48.738;9.320;2022-12-07T08:33:46;9.30;99.90
21565;DHT22;10943;48.738;9.320;2022-12-07T08:36:18;9.20;99.90
21565;DHT22;10943;48.738;9.320;2022-12-07T08:38:50;9.30;99.90
21565;DHT22;10943;48.738;9.320;2022-12-07T08:41:37;9.20;99.90
21565;DHT22;10943;48.738;9.320;2022-12-07T08:44:07;9.40;99.90
21565;DHT22;10943;48.738;9.320;2022-12-07T08:47:01;9.60;99.90
21565;DHT22;10943;48.738;9.320;2022-12-07T08:49:38;9.80;99.90
21565;DHT22;10943;48.738;9.320;2022-12-07T08:52:09;10.00;99.90
21565;DHT22;10943;48.738;9.320;2022-12-07T08:54:38;10.10;99.90
21565;DHT22;10943;48.738;9.320;2022-12-07T08:57:08;10.30;99.90
21565;DHT22;10943;48.738;9.320;2022-12-07T08:59:37;10.40;99.90
21565;DHT22;10943;48.738;9.320;2022-12-07T09:02:05;10.30;99.90
21565;DHT22;10943;48.738;9.320;2022-12-07T09:04:33;10.50;99.90
21565;DHT22;10943;48.738;9.320;2022-12-07T09:07:01;10.50;99.90
21565;DHT22;10943;48.738;9.320;2022-12-07T09:09:28;10.70;99.90
21565;DHT22;10943;48.738;9.320;2022-12-07T09:11:56;10.90;99.90
21565;DHT22;10943;48.738;9.320;2022-12-07T09:14:27;11.20;99.90
21565;DHT22;10943;48.738;9.320;2022-12-07T09:16:55;11.30;99.90
21565;DHT22;10943;48.738;9.320;2022-12-07T09:19:36;11.50;99.90
21565;DHT22;10943;48.738;9.320;2022-12-07T09:22:04;11.60;99.90
21565;DHT22;10943;48.738;9.320;2022-12-07T09:24:32;11.80;99.90
21565;DHT22;10943;48.738;9.320;2022-12-07T09:26:59;11.70;99.90
21565;DHT22;10943;48.738;9.320;2022-12-07T09:29:26;11.60;99.90
21565;DHT22;10943;48.738;9.320;2022-12-07T09:31:54;11.50;99.90
21565;DHT22;10943;48.738;9.320;2022-12-07T09:34:21;11.50;99.90
21565;DHT22;10943;48.738;9.320;2022-12-07T09:36:49;11.40;99.90
21565;DHT22;10943;48.738;9.320;2022-12-07T09:39:16;11.50;99.90
21565;DHT22;10943;48.738;9.320;2022-12-07T09:41:44;11.70;99.90
21565;DHT22;10943;48.738;9.320;2022-12-07T09:44:23;11.70;99.90
21565;DHT22;10943;48.738;9.320;2022-12-07T09:46:53;11.60;99.90
21565;DHT22;10943;48.738;9.320;2022-12-07T09:49:23;11.60;99.90
21565;DHT22;10943;48.738;9.320;2022-12-07T09:54:45;12.00;99.90
21565;DHT22;10943;48.738;9.320;2022-12-07T09:57:16;12.00;99.90
21565;DHT22;10943;48.738;9.320;2022-12-07T09:59:56;12.20;99.90
21565;DHT22;10943;48.738;9.320;2022-12-07T10:02:35;12.70;99.90
21565;DHT22;10943;48.738;9.320;2022-12-07T10:05:27;13.10;99.90
21565;DHT22;10943;48.738;9.320;2022-12-07T10:07:59;13.10;99.90
21565;DHT22;10943;48.738;9.320;2022-12-07T10:10:30;13.00;99.90
21565;DHT22;10943;48.738;9.320;2022-12-07T10:13:10;13.10;99.90
21565;DHT22;10943;48.738;9.320;2022-12-07T10:15:53;13.30;99.90
21565;DHT22;10943;48.738;9.320;2022-12-07T10:18:41;13.70;99.90
21565;DHT22;10943;48.738;9.320;2022-12-07T10:21:10;13.70;99.90
21565;DHT22;10943;48.738;9.320;2022-12-07T10:31:59;13.60;99.90
21565;DHT22;10943;48.738;9.320;2022-12-07T10:34:42;13.70;99.90
21565;DHT22;10943;48.738;9.320;2022-12-07T10:37:20;13.80;99.90
21565;DHT22;10943;48.738;9.320;2022-12-07T10:39:53;14.00;99.90
21565;DHT22;10943;48.738;9.320;2022-12-07T10:47:48;13.60;99.90
21565;DHT22;10943;48.738;9.320;2022-12-07T10:51:02;13.40;99.90
21565;DHT22;10943;48.738;9.320;2022-12-07T10:53:59;13.10;99.90
21565;DHT22;10943;48.738;9.320;2022-12-07T11:00:24;12.90;99.90
21565;DHT22;10943;48.738;9.320;2022-12-07T11:06:19;13.10;99.90
21565;DHT22;10943;48.738;9.320;2022-12-07T11:09:34;13.10;99.90
21565;DHT22;10943;48.738;9.320;2022-12-07T11:21:27;12.70;99.90
21565;DHT22;10943;48.738;9.320;2022-12-07T11:33:55;12.20;99.90
21565;DHT22;10943;48.738;9.320;2022-12-07T11:36:41;11.80;99.90
21565;DHT22;10943;48.738;9.320;2022-12-07T11:42:01;11.90;99.90
21565;DHT22;10943;48.738;9.320;2022-12-07T11:44:43;12.00;99.90
21565;DHT22;10943;48.738;9.320;2022-12-07T11:47:47;11.60;99.90
21565;DHT22;10943;48.738;9.320;2022-12-07T11:50:54;11.40;99.90
21565;DHT22;10943;48.738;9.320;2022-12-07T11:53:37;11.50;99.90
21565;DHT22;10943;48.738;9.320;2022-12-07T11:56:13;11.70;99.90
21565;DHT22;10943;48.738;9.320;2022-12-07T12:01:42;11.80;99.90
21565;DHT22;10943;48.738;9.320;2022-12-07T12:08:10;11.70;99.90
21565;DHT22;10943;48.738;9.320;2022-12-07T12:18:36;11.70;99.90
21565;DHT22;10943;48.738;9.320;2022-12-07T12:21:48;11.70;99.90
21565;DHT22;10943;48.738;9.320;2022-12-07T12:24:26;11.70;99.90
21565;DHT22;10943;48.738;9.320;2022-12-07T12:27:08;11.70;99.90
21565;DHT22;10943;48.738;9.320;2022-12-07T12:29:59;11.70;99.90
21565;DHT22;10943;48.738;9.320;2022-12-07T12:32:41;11.80;99.90
21565;DHT22;10943;48.738;9.320;2022-12-07T12:35:31;11.70;99.90
21565;DHT22;10943;48.738;9.320;2022-12-07T12:40:58;11.30;99.90
21565;DHT22;10943;48.738;9.320;2022-12-07T12:43:46;11.30;99.90
21565;DHT22;10943;48.738;9.320;2022-12-07T12:52:27;10.80;99.90
21565;DHT22;10943;48.738;9.320;2022-12-07T12:57:36;11.10;99.90
21565;DHT22;10943;48.738;9.320;2022-12-07T13:00:23;11.00;99.90
21565;DHT22;10943;48.738;9.320;2022-12-07T13:02:56;11.10;99.90
21565;DHT22;10943;48.738;9.320;2022-12-07T13:05:30;11.10;99.90
21565;DHT22;10943;48.738;9.320;2022-12-07T13:08:21;11.10;99.90
21565;DHT22;10943;48.738;9.320;2022-12-07T13:11:20;11.20;99.90
21565;DHT22;10943;48.738;9.320;2022-12-07T13:20:02;11.40;99.90
21565;DHT22;10943;48.738;9.320;2022-12-07T13:22:46;11.30;99.90
21565;DHT22;10943;48.738;9.320;2022-12-07T13:25:41;11.20;99.90
21565;DHT22;10943;48.738;9.320;2022-12-07T13:28:18;11.10;99.90
21565;DHT22;10943;48.738;9.320;2022-12-07T13:33:48;11.10;99.90
21565;DHT22;10943;48.738;9.320;2022-12-07T13:36:27;11.10;99.90
21565;DHT22;10943;48.738;9.320;2022-12-07T13:39:19;11.10;99.90
21565;DHT22;10943;48.738;9.320;2022-12-07T13:41:58;11.00;99.90
21565;DHT22;10943;48.738;9.320;2022-12-07T13:44:34;11.00;99.90
21565;DHT22;10943;48.738;9.320;2022-12-07T13:47:31;10.90;99.90
21565;DHT22;10943;48.738;9.320;2022-12-07T13:50:28;10.80;99.90
21565;DHT22;10943;48.738;9.320;2022-12-07T13:52:59;10.80;99.90
21565;DHT22;10943;48.738;9.320;2022-12-07T13:55:29;10.70;99.90
21565;DHT22;10943;48.738;9.320;2022-12-07T13:57:56;10.70;99.90
21565;DHT22;10943;48.738;9.320;2022-12-07T14:00:26;10.60;99.90
21565;DHT22;10943;48.738;9.320;2022-12-07T14:05:32;10.80;99.90
21565;DHT22;10943;48.738;9.320;2022-12-07T14:10:58;10.80;99.90
21565;DHT22;10943;48.738;9.320;2022-12-07T14:13:37;10.70;99.90
21565;DHT22;10943;48.738;9.320;2022-12-07T14:18:57;10.90;99.90
21565;DHT22;10943;48.738;9.320;2022-12-07T14:21:29;11.00;99.90
21565;DHT22;10943;48.738;9.320;2022-12-07T14:24:19;11.00;99.90
21565;DHT22;10943;48.738;9.320;2022-12-07T14:26:50;11.00;99.90
21565;DHT22;10943;48.738;9.320;2022-12-07T14:32:28;10.80;99.90
21565;DHT22;10943;48.738;9.320;2022-12-07T14:37:43;10.70;99.90
21565;DHT22;10943;48.738;9.320;2022-12-07T14:40:22;10.80;99.90
21565;DHT22;10943;48.738;9.320;2022-12-07T14:42:57;10.80;99.90
21565;DHT22;10943;48.738;9.320;2022-12-07T14:45:33;10.70;99.90
21565;DHT22;10943;48.738;9.320;2022-12-07T14:48:00;10.70;99.90
21565;DHT22;10943;48.738;9.320;2022-12-07T14:50:52;10.60;99.90
21565;DHT22;10943;48.738;9.320;2022-12-07T14:53:44;10.50;99.90
21565;DHT22;10943;48.738;9.320;2022-12-07T14:56:24;10.40;99.90
21565;DHT22;10943;48.738;9.320;2022-12-07T14:58:52;10.40;99.90
21565;DHT22;10943;48.738;9.320;2022-12-07T15:01:19;10.30;99.90
21565;DHT22;10943;48.738;9.320;2022-12-07T15:03:47;10.30;99.90
21565;DHT22;10943;48.738;9.320;2022-12-07T15:06:17;10.30;99.90
21565;DHT22;10943;48.738;9.320;2022-12-07T15:08:45;10.30;99.90
21565;DHT22;10943;48.738;9.320;2022-12-07T15:11:17;10.20;99.90
21565;DHT22;10943;48.738;9.320;2022-12-07T15:13:45;10.20;99.90
21565;DHT22;10943;48.738;9.320;2022-12-07T15:16:32;10.10;99.90
21565;DHT22;10943;48.738;9.320;2022-12-07T15:19:21;10.20;99.90
21565;DHT22;10943;48.738;9.320;2022-12-07T15:21:55;10.30;99.90
21565;DHT22;10943;48.738;9.320;2022-12-07T15:24:24;10.20;99.90
21565;DHT22;10943;48.738;9.320;2022-12-07T15:26:51;10.20;99.90
21565;DHT22;10943;48.738;9.320;2022-12-07T15:29:19;10.30;99.90
21565;DHT22;10943;48.738;9.320;2022-12-07T15:31:50;10.40;99.90
21565;DHT22;10943;48.738;9.320;2022-12-07T15:34:25;10.30;99.90
21565;DHT22;10943;48.738;9.320;2022-12-07T15:37:03;10.10;99.90
21565;DHT22;10943;48.738;9.320;2022-12-07T15:39:31;10.10;99.90
21565;DHT22;10943;48.738;9.320;2022-12-07T15:41:59;10.20;99.90
21565;DHT22;10943;48.738;9.320;2022-12-07T15:44:26;10.20;99.90
21565;DHT22;10943;48.738;9.320;2022-12-07T15:47:12;10.20;99.90
21565;DHT22;10943;48.738;9.320;2022-12-07T15:49:39;10.20;99.90
21565;DHT22;10943;48.738;9.320;2022-12-07T15:52:08;10.10;99.90
21565;DHT22;10943;48.738;9.320;2022-12-07T15:55:04;9.90;99.90
21565;DHT22;10943;48.738;9.320;2022-12-07T15:58:16;9.80;99.90
21565;DHT22;10943;48.738;9.320;2022-12-07T16:00:43;9.90;99.90
21565;DHT22;10943;48.738;9.320;2022-12-07T16:03:11;10.00;99.90
21565;DHT22;10943;48.738;9.320;2022-12-07T16:05:39;10.00;99.90
21565;DHT22;10943;48.738;9.320;2022-12-07T16:08:06;10.00;99.90
21565;DHT22;10943;48.738;9.320;2022-12-07T16:10:34;10.00;99.90
21565;DHT22;10943;48.738;9.320;2022-12-07T16:13:02;9.90;99.90
21565;DHT22;10943;48.738;9.320;2022-12-07T16:15:29;9.80;99.90
21565;DHT22;10943;48.738;9.320;2022-12-07T16:17:56;10.00;99.90
21565;DHT22;10943;48.738;9.320;2022-12-07T16:20:23;10.00;99.90
21565;DHT22;10943;48.738;9.320;2022-12-07T16:22:52;10.10;99.90
21565;DHT22;10943;48.738;9.320;2022-12-07T16:25:20;9.90;99.90
21565;DHT22;10943;48.738;9.320;2022-12-07T16:27:51;9.90;99.90
21565;DHT22;10943;48.738;9.320;2022-12-07T16:30:20;9.80;99.90
21565;DHT22;10943;48.738;9.320;2022-12-07T16:32:49;10.00;99.90
21565;DHT22;10943;48.738;9.320;2022-12-07T16:35:17;9.90;99.90
21565;DHT22;10943;48.738;9.320;2022-12-07T16:37:44;9.80;99.90
21565;DHT22;10943;48.738;9.320;2022-12-07T16:40:12;9.80;99.90
21565;DHT22;10943;48.738;9.320;2022-12-07T16:42:39;9.70;99.90
21565;DHT22;10943;48.738;9.320;2022-12-07T16:45:07;9.70;99.90
21565;DHT22;10943;48.738;9.320;2022-12-07T16:47:39;9.60;99.90
21565;DHT22;10943;48.738;9.320;2022-12-07T16:50:08;9.60;99.90
21565;DHT22;10943;48.738;9.320;2022-12-07T16:52:35;9.50;99.90
21565;DHT22;10943;48.738;9.320;2022-12-07T16:55:03;9.60;99.90
21565;DHT22;10943;48.738;9.320;2022-12-07T16:57:33;9.60;99.90
21565;DHT22;10943;48.738;9.320;2022-12-07T17:00:01;9.50;99.90
21565;DHT22;10943;48.738;9.320;2022-12-07T17:02:31;9.30;99.90
21565;DHT22;10943;48.738;9.320;2022-12-07T17:04:58;9.30;99.90
21565;DHT22;10943;48.738;9.320;2022-12-07T17:07:26;9.00;99.90
21565;DHT22;10943;48.738;9.320;2022-12-07T17:09:54;9.20;99.90
21565;DHT22;10943;48.738;9.320;2022-12-07T17:12:21;9.10;99.90
21565;DHT22;10943;48.738;9.320;2022-12-07T17:14:49;9.10;99.90
21565;DHT22;10943;48.738;9.320;2022-12-07T17:17:35;9.00;99.90
21565;DHT22;10943;48.738;9.320;2022-12-07T17:20:05;9.10;99.90
21565;DHT22;10943;48.738;9.320;2022-12-07T17:22:33;9.10;99.90
21565;DHT22;10943;48.738;9.320;2022-12-07T17:25:01;9.10;99.90
21565;DHT22;10943;48.738;9.320;2022-12-07T17:29:28;9.10;99.90
21565;DHT22;10943;48.738;9.320;2022-12-07T17:31:59;9.10;99.90
21565;DHT22;10943;48.738;9.320;2022-12-07T17:34:26;9.00;99.90
21565;DHT22;10943;48.738;9.320;2022-12-07T17:36:54;9.20;99.90
21565;DHT22;10943;48.738;9.320;2022-12-07T17:39:21;9.40;99.90
21565;DHT22;10943;48.738;9.320;2022-12-07T17:41:49;9.40;99.90
21565;DHT22;10943;48.738;9.320;2022-12-07T17:44:35;9.40;99.90
21565;DHT22;10943;48.738;9.320;2022-12-07T17:47:02;9.40;99.90
21565;DHT22;10943;48.738;9.320;2022-12-07T17:49:30;9.40;99.90
21565;DHT22;10943;48.738;9.320;2022-12-07T17:51:57;9.40;99.90
21565;DHT22;10943;48.738;9.320;2022-12-07T17:54:43;9.40;99.90
21565;DHT22;10943;48.738;9.320;2022-12-07T17:57:11;9.30;99.90
21565;DHT22;10943;48.738;9.320;2022-12-07T17:59:38;9.30;99.90
21565;DHT22;10943;48.738;9.320;2022-12-07T18:02:06;9.40;99.90
21565;DHT22;10943;48.738;9.320;2022-12-07T18:04:34;9.20;99.90
21565;DHT22;10943;48.738;9.320;2022-12-07T18:07:02;9.10;99.90
21565;DHT22;10943;48.738;9.320;2022-12-07T18:09:32;9.20;99.90
21565;DHT22;10943;48.738;9.320;2022-12-07T18:12:01;9.00;99.90
21565;DHT22;10943;48.738;9.320;2022-12-07T18:14:54;9.00;99.90
21565;DHT22;10943;48.738;9.320;2022-12-07T18:17:22;9.00;99.90